createdAt,value
2022-10-29T00:01:39.481Z,13.80
2022-10-29T00:04:11.635Z,13.81
2022-10-29T00:06:43.847Z,13.83
2022-10-29T00:09:16.065Z,13.83
2022-10-29T00:11:48.123Z,13.78
2022-10-29T00:14:20.213Z,13.78
2022-10-29T00:16:53.335Z,13.77
2022-10-29T00:19:26.223Z,13.76
2022-10-29T00:21:58.512Z,13.74
2022-10-29T00:24:30.685Z,13.72
2022-10-29T00:27:02.793Z,13.69
2022-10-29T00:29:34.865Z,13.65
2022-10-29T00:32:07.335Z,13.64
2022-10-29T00:34:37.912Z,13.65
2022-10-29T00:37:10.045Z,13.61
2022-10-29T00:39:42.214Z,13.56
2022-10-29T00:42:17.889Z,13.54
2022-10-29T00:44:51.434Z,13.57
2022-10-29T00:47:25.271Z,13.61
2022-10-29T00:50:01.297Z,13.65
2022-10-29T00:52:35.346Z,13.68
2022-10-29T00:55:10.121Z,13.72
2022-10-29T00:57:47.336Z,13.71
2022-10-29T01:00:20.517Z,13.62
2022-10-29T01:02:52.843Z,13.55
2022-10-29T01:05:27.157Z,13.55
2022-10-29T01:07:59.334Z,13.55
2022-10-29T01:10:37.937Z,13.54
2022-10-29T01:13:23.697Z,13.54
2022-10-29T01:16:01.811Z,13.51
2022-10-29T01:18:39.454Z,13.50
2022-10-29T01:21:28.694Z,13.49
2022-10-29T01:24:31.623Z,13.45
2022-10-29T01:27:30.528Z,13.36
2022-10-29T01:30:09.862Z,13.27
2022-10-29T01:32:50.936Z,13.26
2022-10-29T01:35:29.599Z,13.22
2022-10-29T01:38:11.255Z,13.15
2022-10-29T01:40:50.246Z,13.12
2022-10-29T01:43:26.517Z,13.12
2022-10-29T01:46:03.514Z,13.12
2022-10-29T01:48:39.254Z,13.12
2022-10-29T01:51:15.265Z,13.13
2022-10-29T01:53:47.486Z,13.12
2022-10-29T01:56:19.769Z,13.09
2022-10-29T01:58:54.266Z,13.11
2022-10-29T02:01:38.579Z,13.15
2022-10-29T02:04:25.779Z,13.18
2022-10-29T02:07:03.765Z,13.20
2022-10-29T02:09:40.334Z,13.20
2022-10-29T02:12:18.302Z,13.21
2022-10-29T02:14:53.970Z,13.22
2022-10-29T02:17:26.426Z,13.23
2022-10-29T02:19:58.575Z,13.20
2022-10-29T02:22:30.759Z,13.18
2022-10-29T02:25:03.167Z,13.13
2022-10-29T02:27:33.926Z,13.09
2022-10-29T02:30:07.516Z,13.03
2022-10-29T02:32:39.760Z,13.00
2022-10-29T02:35:12.510Z,12.93
2022-10-29T02:37:44.655Z,12.85
2022-10-29T02:40:17.683Z,12.79
2022-10-29T02:42:49.924Z,12.73
2022-10-29T02:45:22.017Z,12.70
2022-10-29T02:47:54.557Z,12.67
2022-10-29T02:50:25.186Z,12.68
2022-10-29T02:52:57.383Z,12.67
2022-10-29T02:55:29.431Z,12.71
2022-10-29T02:58:01.478Z,12.69
2022-10-29T03:00:33.579Z,12.65
2022-10-29T03:03:05.799Z,12.65
2022-10-29T03:05:37.949Z,12.68
2022-10-29T03:08:10.295Z,12.72
2022-10-29T03:10:42.411Z,12.74
2022-10-29T03:13:14.946Z,12.79
2022-10-29T03:15:48.833Z,12.83
2022-10-29T03:18:20.942Z,12.86
2022-10-29T03:20:53.051Z,12.84
2022-10-29T03:23:25.107Z,12.81
2022-10-29T03:25:57.853Z,12.81
2022-10-29T03:28:30.757Z,12.80
2022-10-29T03:31:02.929Z,12.78
2022-10-29T03:33:35.196Z,12.77
2022-10-29T03:36:09.597Z,12.76
2022-10-29T03:38:41.717Z,12.77
2022-10-29T03:41:13.894Z,12.69
2022-10-29T03:43:46.120Z,12.59
2022-10-29T03:46:18.203Z,12.55
2022-10-29T03:48:53.206Z,12.56
2022-10-29T03:51:25.278Z,12.55
2022-10-29T03:53:57.329Z,12.49
2022-10-29T03:56:29.518Z,12.42
2022-10-29T03:59:01.761Z,12.42
2022-10-29T04:01:34.411Z,12.45
2022-10-29T04:04:06.815Z,12.48
2022-10-29T04:06:39.055Z,12.52
2022-10-29T04:09:11.199Z,12.53
2022-10-29T04:11:43.265Z,12.51
2022-10-29T04:14:15.331Z,12.45
2022-10-29T04:16:47.399Z,12.42
2022-10-29T04:19:19.494Z,12.40
2022-10-29T04:30:27.854Z,12.30
2022-10-29T04:33:01.104Z,12.26
2022-10-29T04:35:33.302Z,12.17
2022-10-29T04:38:10.974Z,12.11
2022-10-29T04:40:43.184Z,12.07
2022-10-29T04:43:15.300Z,12.08
2022-10-29T04:45:51.761Z,12.11
2022-10-29T04:48:24.865Z,12.17
2022-10-29T04:50:56.995Z,12.25
2022-10-29T04:53:29.202Z,12.30
2022-10-29T04:56:05.940Z,12.30
2022-10-29T04:58:38.048Z,12.31
2022-10-29T05:01:10.292Z,12.31
2022-10-29T05:03:42.540Z,12.21
2022-10-29T05:06:13.499Z,12.14
2022-10-29T05:08:45.612Z,12.04
2022-10-29T05:11:17.688Z,11.96
2022-10-29T05:13:49.846Z,11.91
2022-10-29T05:16:22.070Z,11.90
2022-10-29T05:18:54.228Z,11.88
2022-10-29T05:21:26.422Z,11.89
2022-10-29T05:23:58.728Z,11.92
2022-10-29T05:26:33.406Z,11.91
2022-10-29T05:29:05.634Z,11.94
2022-10-29T05:31:37.704Z,12.00
2022-10-29T05:34:09.920Z,12.09
2022-10-29T05:36:42.078Z,12.18
2022-10-29T05:39:14.224Z,12.24
2022-10-29T05:41:46.892Z,12.29
2022-10-29T05:44:19.154Z,12.34
2022-10-29T05:46:52.783Z,12.39
2022-10-29T05:49:24.933Z,12.43
2022-10-29T05:51:57.055Z,12.45
2022-10-29T05:54:29.150Z,12.40
2022-10-29T05:57:02.472Z,12.34
2022-10-29T05:59:34.533Z,12.32
2022-10-29T06:02:06.699Z,12.25
2022-10-29T06:04:38.899Z,12.20
2022-10-29T06:07:10.958Z,12.25
2022-10-29T06:09:43.192Z,12.32
2022-10-29T06:12:15.370Z,12.41
2022-10-29T06:14:47.421Z,12.52
2022-10-29T06:17:19.539Z,12.60
2022-10-29T06:19:51.605Z,12.68
2022-10-29T06:22:23.719Z,12.77
2022-10-29T06:24:55.812Z,12.83
2022-10-29T06:27:27.952Z,12.86
2022-10-29T06:30:00.039Z,12.90
2022-10-29T06:32:32.450Z,12.97
2022-10-29T06:35:04.561Z,13.03
2022-10-29T06:37:40.406Z,13.03
2022-10-29T06:40:13.757Z,13.02
2022-10-29T06:42:45.851Z,13.10
2022-10-29T06:45:18.296Z,13.18
2022-10-29T06:47:50.400Z,13.26
2022-10-29T06:50:22.936Z,13.33
2022-10-29T06:52:59.967Z,13.41
2022-10-29T06:55:32.595Z,13.49
2022-10-29T06:58:06.092Z,13.58
2022-10-29T07:00:38.326Z,13.67
2022-10-29T07:03:11.763Z,13.77
2022-10-29T07:05:43.944Z,13.87
2022-10-29T07:08:16.383Z,13.98
2022-10-29T07:10:50.540Z,14.07
2022-10-29T07:13:22.918Z,14.16
2022-10-29T07:15:55.004Z,14.24
2022-10-29T07:18:27.198Z,14.30
2022-10-29T07:20:59.431Z,14.37
2022-10-29T07:23:31.643Z,14.43
2022-10-29T07:26:03.697Z,14.48
2022-10-29T07:28:35.774Z,14.52
2022-10-29T07:31:08.664Z,14.58
2022-10-29T07:33:40.739Z,14.62
2022-10-29T07:36:12.981Z,14.67
2022-10-29T07:38:45.120Z,14.72
2022-10-29T07:41:17.234Z,14.78
2022-10-29T07:43:49.301Z,14.83
2022-10-29T07:46:21.335Z,14.90
2022-10-29T07:48:53.542Z,14.93
2022-10-29T07:51:25.752Z,14.97
2022-10-29T07:53:57.899Z,15.03
2022-10-29T07:56:30.118Z,15.08
2022-10-29T07:59:02.225Z,15.14
2022-10-29T08:01:35.562Z,15.20
2022-10-29T08:04:07.844Z,15.25
2022-10-29T08:06:40.054Z,15.31
2022-10-29T08:09:13.358Z,15.38
2022-10-29T08:14:22.823Z,15.51
2022-10-29T08:16:56.941Z,15.59
2022-10-29T08:19:30.019Z,15.66
2022-10-29T08:22:02.288Z,15.72
2022-10-29T08:24:34.360Z,15.77
2022-10-29T08:27:06.689Z,15.83
2022-10-29T08:29:38.873Z,15.91
2022-10-29T08:32:10.966Z,15.99
2022-10-29T08:34:43.128Z,16.06
2022-10-29T08:37:15.340Z,16.13
2022-10-29T08:39:47.544Z,16.19
2022-10-29T08:42:29.665Z,16.26
2022-10-29T08:45:22.156Z,16.34
2022-10-29T08:48:24.466Z,16.43
2022-10-29T08:51:02.381Z,16.50
2022-10-29T08:53:38.463Z,16.56
2022-10-29T08:56:16.228Z,16.64
2022-10-29T08:58:57.389Z,16.73
2022-10-29T09:01:29.810Z,16.81
2022-10-29T09:04:02.304Z,16.89
2022-10-29T09:06:44.260Z,16.98
2022-10-29T09:09:29.576Z,17.07
2022-10-29T09:12:13.780Z,17.17
2022-10-29T09:15:11.395Z,17.27
2022-10-29T09:17:48.030Z,17.36
2022-10-29T09:20:27.675Z,17.46
2022-10-29T09:23:06.598Z,17.58
2022-10-29T09:25:43.571Z,17.76
2022-10-29T09:28:23.674Z,17.94
2022-10-29T09:31:00.206Z,18.14
2022-10-29T09:33:32.888Z,18.38
2022-10-29T09:36:09.298Z,18.68
2022-10-29T09:38:46.839Z,19.06
2022-10-29T09:41:19.126Z,19.51
2022-10-29T09:43:55.354Z,19.94
2022-10-29T09:46:37.132Z,20.36
2022-10-29T09:49:20.221Z,20.81
2022-10-29T09:51:56.568Z,21.32
2022-10-29T09:54:31.230Z,21.72
2022-10-29T09:57:05.328Z,22.18
2022-10-29T09:59:39.660Z,22.59
2022-10-29T10:02:28.508Z,22.98
2022-10-29T10:05:05.776Z,23.29
2022-10-29T10:07:37.870Z,23.63
2022-10-29T10:10:13.802Z,24.01
2022-10-29T10:12:50.506Z,24.29
2022-10-29T10:15:25.447Z,24.57
2022-10-29T10:18:00.394Z,24.86
2022-10-29T10:20:38.653Z,25.18
2022-10-29T10:23:26.028Z,25.40
2022-10-29T10:26:02.350Z,25.65
2022-10-29T10:28:37.595Z,25.88
2022-10-29T10:31:09.241Z,26.09
2022-10-29T10:33:52.007Z,26.25
2022-10-29T10:36:26.841Z,26.52
2022-10-29T10:39:00.759Z,26.75
2022-10-29T10:41:35.950Z,26.97
2022-10-29T10:44:08.341Z,27.13
2022-10-29T10:46:43.320Z,27.38
2022-10-29T10:49:19.353Z,27.63
2022-10-29T10:51:54.179Z,27.77
2022-10-29T10:54:37.122Z,27.58
2022-10-29T10:57:25.985Z,27.39
2022-10-29T11:00:06.459Z,27.27
2022-10-29T11:02:46.595Z,27.27
2022-10-29T11:05:21.645Z,27.28
2022-10-29T11:07:59.189Z,27.27
2022-10-29T11:10:37.490Z,27.48
2022-10-29T11:13:15.376Z,27.72
2022-10-29T11:15:52.649Z,27.77
2022-10-29T11:18:30.510Z,27.83
2022-10-29T11:21:15.695Z,28.03
2022-10-29T11:23:53.739Z,28.22
2022-10-29T11:26:33.453Z,28.11
2022-10-29T11:29:15.397Z,28.09
2022-10-29T11:31:56.534Z,28.32
2022-10-29T11:34:40.371Z,28.55
2022-10-29T11:37:18.736Z,28.73
2022-10-29T11:39:53.660Z,28.67
2022-10-29T11:42:26.210Z,28.76
2022-10-29T11:45:01.043Z,28.93
2022-10-29T11:47:44.791Z,29.00
2022-10-29T11:50:26.734Z,29.05
2022-10-29T11:52:59.332Z,29.24
2022-10-29T11:55:37.712Z,29.42
2022-10-29T11:58:20.389Z,29.55
2022-10-29T12:01:04.987Z,29.53
2022-10-29T12:03:55.866Z,29.33
2022-10-29T12:06:36.431Z,29.47
2022-10-29T12:09:27.545Z,29.62
2022-10-29T12:12:04.614Z,29.50
2022-10-29T12:14:40.744Z,29.41
2022-10-29T12:17:17.169Z,29.54
2022-10-29T12:19:53.804Z,29.65
2022-10-29T12:22:35.717Z,29.70
2022-10-29T12:25:32.044Z,29.76
2022-10-29T12:28:11.835Z,29.72
2022-10-29T12:30:49.724Z,29.74
2022-10-29T12:33:28.206Z,29.84
2022-10-29T12:36:03.566Z,29.90
2022-10-29T12:38:41.030Z,29.89
2022-10-29T12:41:21.047Z,29.75
2022-10-29T12:43:55.056Z,29.70
2022-10-29T12:46:32.687Z,29.74
2022-10-29T12:49:11.900Z,29.75
2022-10-29T12:51:50.379Z,29.82
2022-10-29T12:54:33.320Z,29.83
2022-10-29T12:57:21.576Z,29.71
2022-10-29T12:59:53.715Z,29.63
2022-10-29T13:02:31.546Z,29.45
2022-10-29T13:05:39.079Z,29.10
2022-10-29T13:08:27.713Z,28.94
2022-10-29T13:10:59.948Z,28.71
2022-10-29T13:13:53.691Z,28.54
2022-10-29T13:16:30.151Z,28.50
2022-10-29T13:19:22.925Z,28.43
2022-10-29T13:22:15.583Z,28.25
2022-10-29T13:24:47.665Z,28.18
2022-10-29T13:27:38.426Z,27.96
2022-10-29T13:30:25.801Z,27.68
2022-10-29T13:32:59.125Z,27.44
2022-10-29T13:35:44.812Z,27.33
2022-10-29T13:38:17.935Z,27.32
2022-10-29T13:41:06.977Z,27.27
2022-10-29T13:43:39.297Z,27.01
2022-10-29T13:46:27.711Z,26.80
2022-10-29T13:49:02.516Z,26.70
2022-10-29T13:51:40.360Z,26.40
2022-10-29T13:54:17.273Z,26.03
2022-10-29T13:56:53.550Z,25.88
2022-10-29T13:59:31.982Z,25.79
2022-10-29T14:02:30.736Z,25.66
2022-10-29T14:05:07.254Z,25.36
2022-10-29T14:07:44.190Z,25.22
2022-10-29T14:10:22.213Z,25.02
2022-10-29T14:12:58.874Z,24.91
2022-10-29T14:15:31.332Z,24.84
2022-10-29T14:18:03.044Z,24.75
2022-10-29T14:20:35.119Z,24.65
2022-10-29T14:23:11.516Z,24.60
2022-10-29T14:25:43.732Z,24.57
2022-10-29T14:28:18.835Z,24.49
2022-10-29T14:31:01.011Z,24.40
2022-10-29T14:33:35.395Z,24.35
2022-10-29T14:36:16.866Z,24.28
2022-10-29T14:38:52.152Z,24.21
2022-10-29T14:41:24.899Z,24.12
2022-10-29T14:44:04.181Z,24.05
2022-10-29T14:46:37.717Z,23.99
2022-10-29T14:49:16.643Z,23.90
2022-10-29T14:51:54.585Z,23.82
2022-10-29T14:54:29.319Z,23.73
2022-10-29T14:57:05.880Z,23.67
2022-10-29T14:59:38.882Z,23.58
2022-10-29T15:02:37.107Z,23.51
2022-10-29T15:05:24.947Z,23.39
2022-10-29T15:08:16.910Z,23.29
2022-10-29T15:10:54.052Z,23.19
2022-10-29T15:13:31.238Z,23.10
2022-10-29T15:16:38.351Z,23.02
2022-10-29T15:19:38.153Z,22.89
2022-10-29T15:22:26.706Z,22.75
2022-10-29T15:26:58.664Z,22.57
2022-10-29T15:28:26.109Z,22.39
2022-10-29T15:31:10.775Z,22.26
2022-10-29T15:33:50.461Z,22.18
2022-10-29T15:36:53.979Z,22.11
2022-10-29T15:40:04.427Z,22.02
2022-10-29T15:42:41.756Z,21.91
2022-10-29T15:45:23.800Z,21.82
2022-10-29T15:48:27.884Z,21.73
2022-10-29T15:51:37.003Z,21.62
2022-10-29T15:54:19.737Z,21.51
2022-10-29T15:57:28.064Z,21.40
2022-10-29T16:00:13.320Z,21.28
2022-10-29T16:02:55.823Z,21.16
2022-10-29T16:05:32.887Z,21.07
2022-10-29T16:08:20.152Z,21.02
2022-10-29T16:10:54.192Z,20.95
2022-10-29T16:13:39.561Z,20.81
2022-10-29T16:16:42.307Z,20.65
2022-10-29T16:19:20.059Z,20.55
2022-10-29T16:22:00.676Z,20.43
2022-10-29T16:24:43.121Z,20.33
2022-10-29T16:27:24.166Z,20.25
2022-10-29T16:30:21.275Z,20.17
2022-10-29T16:33:01.272Z,20.09
2022-10-29T16:35:35.949Z,20.06
2022-10-29T16:38:08.339Z,20.02
2022-10-29T16:40:38.988Z,19.99
2022-10-29T16:43:14.208Z,19.91
2022-10-29T16:45:47.914Z,19.85
2022-10-29T16:48:20.500Z,19.83
2022-10-29T16:50:53.492Z,19.80
2022-10-29T16:53:25.768Z,19.73
2022-10-29T16:55:58.042Z,19.68
2022-10-29T16:58:30.411Z,19.67
2022-10-29T17:01:10.811Z,19.68
2022-10-29T17:03:44.959Z,19.70
2022-10-29T17:06:17.487Z,19.71
2022-10-29T17:08:51.847Z,19.67
2022-10-29T17:11:28.535Z,19.63
2022-10-29T17:14:03.284Z,19.57
2022-10-29T17:16:41.044Z,19.50
2022-10-29T17:19:19.588Z,19.44
2022-10-29T17:21:58.798Z,19.37
2022-10-29T17:24:32.272Z,19.31
2022-10-29T17:27:38.343Z,19.28
2022-10-29T17:30:19.628Z,19.26
2022-10-29T17:33:00.618Z,19.20
2022-10-29T17:35:38.141Z,19.13
2022-10-29T17:38:14.104Z,19.07
2022-10-29T17:41:05.000Z,19.02
2022-10-29T17:44:09.592Z,18.99
2022-10-29T17:47:05.248Z,19.01
2022-10-29T17:50:11.992Z,19.05
2022-10-29T17:52:59.227Z,19.06
2022-10-29T17:55:31.981Z,19.08
2022-10-29T17:58:06.107Z,19.10
2022-10-29T18:00:38.992Z,19.12
2022-10-29T18:03:12.081Z,19.13
2022-10-29T18:05:44.740Z,19.13
2022-10-29T18:08:18.962Z,19.14
2022-10-29T18:10:58.318Z,19.14
2022-10-29T18:13:38.897Z,19.14
2022-10-29T18:16:25.949Z,19.12
2022-10-29T18:19:03.924Z,19.11
2022-10-29T18:21:36.376Z,19.12
2022-10-29T18:24:10.417Z,19.11
2022-10-29T18:26:49.977Z,19.11
2022-10-29T18:29:23.322Z,19.08
2022-10-29T18:31:57.554Z,19.08
2022-10-29T18:34:30.021Z,19.05
2022-10-29T18:37:02.770Z,19.03
2022-10-29T18:39:42.618Z,19.03
2022-10-29T18:42:16.063Z,19.02
2022-10-29T18:44:51.413Z,19.01
2022-10-29T18:47:25.568Z,19.02
2022-10-29T18:49:59.959Z,19.00
2022-10-29T18:52:32.566Z,19.00
2022-10-29T18:55:05.373Z,18.99
2022-10-29T18:57:43.241Z,18.95
2022-10-29T19:00:18.311Z,18.92
2022-10-29T19:02:54.249Z,18.88
2022-10-29T19:05:27.025Z,18.84
2022-10-29T19:08:02.266Z,18.82
2022-10-29T19:10:37.427Z,18.73
2022-10-29T19:13:12.329Z,18.62
2022-10-29T19:15:47.192Z,18.54
2022-10-29T19:18:22.379Z,18.51
2022-10-29T19:20:56.656Z,18.50
2022-10-29T19:23:33.196Z,18.47
2022-10-29T19:26:08.022Z,18.45
2022-10-29T19:28:45.449Z,18.45
2022-10-29T19:31:20.435Z,18.45
2022-10-29T19:33:53.495Z,18.41
2022-10-29T19:36:26.598Z,18.33
2022-10-29T19:39:00.554Z,18.25
2022-10-29T19:41:34.154Z,18.19
2022-10-29T19:44:06.952Z,18.13
2022-10-29T19:46:39.472Z,18.04
2022-10-29T19:49:12.871Z,17.97
2022-10-29T19:51:46.451Z,17.89
2022-10-29T19:54:18.581Z,17.78
2022-10-29T19:56:50.670Z,17.72
2022-10-29T19:59:23.801Z,17.69
2022-10-29T20:01:55.990Z,17.61
2022-10-29T20:04:28.229Z,17.57
2022-10-29T20:07:00.379Z,17.56
2022-10-29T20:09:32.480Z,17.58
2022-10-29T20:12:04.664Z,17.60
2022-10-29T20:14:36.819Z,17.63
2022-10-29T20:17:08.936Z,17.64
2022-10-29T20:19:41.158Z,17.65
2022-10-29T20:22:14.662Z,17.64
2022-10-29T20:24:47.215Z,17.60
2022-10-29T20:27:19.465Z,17.56
2022-10-29T20:29:51.671Z,17.58
2022-10-29T20:32:24.003Z,17.60
2022-10-29T20:34:56.081Z,17.63
2022-10-29T20:37:28.300Z,17.65
2022-10-29T20:40:00.444Z,17.61
2022-10-29T20:42:33.104Z,17.54
2022-10-29T20:45:05.592Z,17.51
2022-10-29T20:47:36.006Z,17.48
2022-10-29T20:50:09.019Z,17.44
2022-10-29T20:52:45.692Z,17.39
2022-10-29T20:55:20.423Z,17.38
2022-10-29T20:57:52.589Z,17.35
2022-10-29T21:00:24.891Z,17.36
2022-10-29T21:02:57.015Z,17.37
2022-10-29T21:05:29.209Z,17.34
2022-10-29T21:08:01.448Z,17.30
2022-10-29T21:10:33.543Z,17.25
2022-10-29T21:13:06.143Z,17.23
2022-10-29T21:15:37.459Z,17.23
2022-10-29T21:18:09.822Z,17.21
2022-10-29T21:20:41.892Z,17.22
2022-10-29T21:23:16.611Z,17.22
2022-10-29T21:25:56.522Z,17.19
2022-10-29T21:28:30.711Z,17.16
2022-10-29T21:31:05.465Z,17.14
2022-10-29T21:33:37.748Z,17.15
2022-10-29T21:36:11.457Z,17.15
2022-10-29T21:38:43.623Z,17.16
2022-10-29T21:41:15.780Z,17.15
2022-10-29T21:43:52.278Z,17.14
2022-10-29T21:46:26.479Z,17.09
2022-10-29T21:49:01.471Z,16.97
2022-10-29T21:51:36.518Z,16.87
2022-10-29T21:54:09.016Z,16.77
2022-10-29T21:56:41.105Z,16.75
2022-10-29T21:59:16.965Z,16.73
2022-10-29T22:01:49.224Z,16.69
2022-10-29T22:04:21.690Z,16.68
2022-10-29T22:06:57.295Z,16.70
2022-10-29T22:09:32.120Z,16.71
2022-10-29T22:12:04.277Z,16.74
2022-10-29T22:14:36.451Z,16.75
2022-10-29T22:17:08.566Z,16.68
2022-10-29T22:19:43.137Z,16.64
2022-10-29T22:22:15.264Z,16.64
2022-10-29T22:24:47.550Z,16.66
2022-10-29T22:27:19.649Z,16.65
2022-10-29T22:29:54.344Z,16.65
2022-10-29T22:32:28.112Z,16.63
2022-10-29T22:35:03.000Z,16.62
2022-10-29T22:37:37.064Z,16.59
2022-10-29T22:40:13.713Z,16.53
2022-10-29T22:42:45.784Z,16.39
2022-10-29T22:45:18.230Z,16.32
2022-10-29T22:47:53.480Z,16.28
2022-10-29T22:50:30.879Z,16.28
2022-10-29T22:53:03.109Z,16.29
2022-10-29T22:55:35.266Z,16.28
2022-10-29T22:58:11.777Z,16.27
2022-10-29T23:00:48.113Z,16.29
2022-10-29T23:03:20.988Z,16.25
2022-10-29T23:06:02.676Z,16.20
2022-10-29T23:08:37.759Z,16.15
2022-10-29T23:11:15.026Z,16.13
2022-10-29T23:13:50.175Z,16.11
2022-10-29T23:16:25.259Z,16.11
2022-10-29T23:18:56.496Z,16.09
2022-10-29T23:21:28.992Z,16.03
2022-10-29T23:24:01.221Z,16.03
2022-10-29T23:26:33.038Z,15.96
2022-10-29T23:29:05.418Z,15.85
2022-10-29T23:31:40.561Z,15.81
2022-10-29T23:34:15.447Z,15.77
2022-10-29T23:36:47.673Z,15.78
2022-10-29T23:39:19.893Z,15.82
2022-10-29T23:41:54.761Z,15.85
2022-10-29T23:44:28.159Z,15.87
2022-10-29T23:47:03.324Z,15.87
2022-10-29T23:49:35.530Z,15.87
2022-10-29T23:52:07.857Z,15.85
2022-10-29T23:54:42.602Z,15.79
2022-10-29T23:57:14.915Z,15.70
2022-10-29T23:59:50.662Z,15.66
